createdAt,value
2024-03-16T00:02:01.647Z,100327.69
2024-03-16T00:04:34.293Z,100318.66
2024-03-16T00:07:04.973Z,100325.88
2024-03-16T00:09:34.979Z,100327.69
2024-03-16T00:12:05.698Z,100322.25
2024-03-16T00:14:35.868Z,100326.88
2024-03-16T00:17:06.427Z,100293.13
2024-03-16T00:19:39.058Z,100322.25
2024-03-16T00:22:10.681Z,100317.44
2024-03-16T00:24:40.665Z,100308.22
2024-03-16T00:27:11.525Z,100317.84
2024-03-16T00:29:41.368Z,100322.25
2024-03-16T00:32:11.756Z,100320.66
2024-03-16T00:34:44.377Z,100320.66
2024-03-16T00:37:14.508Z,100322.47
2024-03-16T00:39:44.372Z,100321.25
2024-03-16T00:42:14.429Z,100319.44
2024-03-16T00:44:44.255Z,100320.03
2024-03-16T00:47:14.994Z,100314.63
2024-03-16T00:49:47.521Z,100304.59
2024-03-16T00:52:17.797Z,100309.00
2024-03-16T00:54:48.151Z,100307.41
2024-03-16T00:57:18.199Z,100314.63
2024-03-16T00:59:48.051Z,100282.28
2024-03-16T01:02:19.223Z,100293.53
2024-03-16T01:04:51.705Z,100306.19
2024-03-16T01:07:21.903Z,100304.19
2024-03-16T01:09:52.265Z,100302.56
2024-03-16T01:12:22.260Z,100303.97
2024-03-16T01:14:52.146Z,100301.78
2024-03-16T01:17:22.549Z,100301.19
2024-03-16T01:19:56.167Z,100299.56
2024-03-16T01:22:26.023Z,100292.94
2024-03-16T01:24:56.242Z,100290.94
2024-03-16T01:27:26.347Z,100288.53
2024-03-16T01:29:56.259Z,100300.16
2024-03-16T01:32:26.254Z,100301.78
2024-03-16T01:34:59.102Z,100262.84
2024-03-16T01:37:31.120Z,100295.38
2024-03-16T01:40:01.964Z,100299.16
2024-03-16T01:42:32.131Z,100297.75
2024-03-16T01:45:11.440Z,100297.78
2024-03-16T01:47:41.931Z,100291.53
2024-03-16T01:50:14.606Z,100287.94
2024-03-16T01:52:44.460Z,100300.19
2024-03-16T01:55:14.935Z,100299.38
2024-03-16T01:57:44.983Z,100290.72
2024-03-16T02:00:16.587Z,100284.31
2024-03-16T02:02:46.509Z,100296.16
2024-03-16T02:05:18.935Z,100292.91
2024-03-16T02:07:49.123Z,100292.31
2024-03-16T02:10:19.484Z,100290.94
2024-03-16T02:12:50.258Z,100292.13
2024-03-16T02:15:20.912Z,100295.75
2024-03-16T02:17:51.812Z,100288.31
2024-03-16T02:20:25.294Z,100284.09
2024-03-16T02:22:57.763Z,100295.75
2024-03-16T02:25:27.796Z,100290.75
2024-03-16T02:27:58.041Z,100297.38
2024-03-16T02:30:27.996Z,100290.53
2024-03-16T02:32:58.053Z,100296.16
2024-03-16T02:35:28.328Z,100298.97
2024-03-16T02:38:00.842Z,100295.38
2024-03-16T02:40:30.719Z,100287.72
2024-03-16T02:43:01.184Z,100301.78
2024-03-16T02:45:31.123Z,100304.19
2024-03-16T02:48:01.664Z,100308.41
2024-03-16T02:50:31.656Z,100314.25
2024-03-16T02:53:05.112Z,100313.22
2024-03-16T02:55:35.171Z,100318.06
2024-03-16T02:58:06.260Z,100323.06
2024-03-16T03:00:36.546Z,100318.66
2024-03-16T03:03:08.434Z,100315.84
2024-03-16T03:05:38.429Z,100321.66
2024-03-16T03:08:11.561Z,100323.47
2024-03-16T03:10:42.767Z,100308.63
2024-03-16T03:13:12.764Z,100315.81
2024-03-16T03:15:43.111Z,100279.91
2024-03-16T03:18:13.082Z,100311.81
2024-03-16T03:20:42.914Z,100316.44
2024-03-16T03:23:15.410Z,100322.47
2024-03-16T03:25:46.303Z,100324.88
2024-03-16T03:28:16.436Z,100325.47
2024-03-16T03:30:46.596Z,100323.66
2024-03-16T03:33:16.696Z,100332.09
2024-03-16T03:35:46.528Z,100327.09
2024-03-16T03:38:19.184Z,100324.28
2024-03-16T03:40:49.220Z,100335.53
2024-03-16T03:43:23.222Z,100329.91
2024-03-16T03:45:56.494Z,100334.31
2024-03-16T03:48:37.334Z,100327.69
2024-03-16T03:51:07.923Z,100327.91
2024-03-16T03:53:40.575Z,100305.41
2024-03-16T03:56:10.602Z,100327.50
2024-03-16T03:58:40.467Z,100329.09
2024-03-16T04:01:10.394Z,100320.47
2024-03-16T04:03:40.736Z,100320.88
2024-03-16T04:06:10.790Z,100328.69
2024-03-16T04:08:43.264Z,100322.06
2024-03-16T04:11:13.422Z,100313.22
2024-03-16T04:13:43.252Z,100315.84
2024-03-16T04:16:16.132Z,100316.84
2024-03-16T04:18:46.244Z,100324.09
2024-03-16T04:21:17.254Z,100324.88
2024-03-16T04:23:50.709Z,100331.50
2024-03-16T04:26:20.525Z,100331.09
2024-03-16T04:28:51.401Z,100329.47
2024-03-16T04:31:21.235Z,100321.03
2024-03-16T04:33:52.663Z,100331.31
2024-03-16T04:36:24.179Z,100338.53
2024-03-16T04:38:56.836Z,100344.97
2024-03-16T04:41:26.910Z,100344.53
2024-03-16T04:43:57.135Z,100331.09
2024-03-16T04:46:30.223Z,100343.94
2024-03-16T04:49:01.314Z,100345.56
2024-03-16T04:51:31.569Z,100345.97
2024-03-16T04:54:04.905Z,100347.75
2024-03-16T04:56:35.014Z,100325.25
2024-03-16T04:59:04.971Z,100340.72
2024-03-16T05:01:34.935Z,100339.94
2024-03-16T05:04:05.178Z,100338.75
2024-03-16T05:06:35.562Z,100335.53
2024-03-16T05:09:10.762Z,100329.47
2024-03-16T05:11:41.215Z,100337.91
2024-03-16T05:14:11.375Z,100336.91
2024-03-16T05:16:43.022Z,100341.72
2024-03-16T05:19:13.120Z,100342.72
2024-03-16T05:21:43.850Z,100338.69
2024-03-16T05:24:16.607Z,100338.69
2024-03-16T05:26:46.864Z,100339.25
2024-03-16T05:29:16.930Z,100345.91
2024-03-16T05:32:00.734Z,100349.13
2024-03-16T05:34:30.667Z,100357.16
2024-03-16T05:37:00.788Z,100358.38
2024-03-16T05:39:33.537Z,100359.38
2024-03-16T05:42:05.179Z,100354.38
2024-03-16T05:44:36.815Z,100362.19
2024-03-16T05:47:08.267Z,100362.19
2024-03-16T05:49:40.810Z,100367.22
2024-03-16T05:52:10.974Z,100362.41
2024-03-16T05:54:43.623Z,100364.84
2024-03-16T05:57:13.675Z,100363.03
2024-03-16T05:59:43.545Z,100361.81
2024-03-16T06:02:13.588Z,100376.69
2024-03-16T06:04:43.606Z,100380.09
2024-03-16T06:07:13.756Z,100376.47
2024-03-16T06:09:49.929Z,100370.78
2024-03-16T06:12:19.849Z,100365.91
2024-03-16T06:14:52.197Z,100388.16
2024-03-16T06:17:22.512Z,100393.75
2024-03-16T06:19:55.143Z,100405.59
2024-03-16T06:22:25.904Z,100400.38
2024-03-16T06:25:00.880Z,100408.97
2024-03-16T06:27:30.780Z,100416.03
2024-03-16T06:30:02.470Z,100408.03
2024-03-16T06:32:35.710Z,100413.25
2024-03-16T06:35:05.686Z,100415.47
2024-03-16T06:37:38.281Z,100410.88
2024-03-16T06:40:12.393Z,100418.31
2024-03-16T06:42:42.310Z,100436.16
2024-03-16T06:45:12.898Z,100424.94
2024-03-16T06:47:43.016Z,100425.19
2024-03-16T06:50:14.354Z,100434.75
2024-03-16T06:52:44.273Z,100431.19
2024-03-16T06:55:19.499Z,100426.16
2024-03-16T06:57:50.148Z,100441.88
2024-03-16T07:00:20.262Z,100445.91
2024-03-16T07:02:50.121Z,100450.34
2024-03-16T07:05:19.893Z,100450.78
2024-03-16T07:07:49.951Z,100451.34
2024-03-16T07:10:22.372Z,100447.53
2024-03-16T07:12:52.480Z,100458.59
2024-03-16T07:15:22.649Z,100462.00
2024-03-16T07:17:52.631Z,100458.41
2024-03-16T07:20:22.528Z,100464.06
2024-03-16T07:22:55.319Z,100466.44
2024-03-16T07:25:28.545Z,100471.22
2024-03-16T07:27:58.417Z,100478.09
2024-03-16T07:30:28.688Z,100475.09
2024-03-16T07:32:58.662Z,100481.34
2024-03-16T07:35:29.359Z,100482.06
2024-03-16T07:37:59.594Z,100486.25
2024-03-16T07:40:33.197Z,100499.72
2024-03-16T07:43:03.702Z,100493.06
2024-03-16T07:45:34.191Z,100498.25
2024-03-16T07:48:04.314Z,100519.47
2024-03-16T07:50:34.485Z,100541.53
2024-03-16T07:53:04.719Z,100543.25
2024-03-16T07:55:37.544Z,100555.97
2024-03-16T07:58:09.300Z,100581.97
2024-03-16T08:00:41.255Z,100579.59
2024-03-16T08:03:11.160Z,100587.69
2024-03-16T08:05:41.812Z,100601.03
2024-03-16T08:08:11.711Z,100611.09
2024-03-16T08:10:44.209Z,100611.03
2024-03-16T08:13:14.165Z,100610.06
2024-03-16T08:15:44.123Z,100629.19
2024-03-16T08:18:14.131Z,100636.25
2024-03-16T08:20:44.102Z,100642.56
2024-03-16T08:23:14.012Z,100646.22
2024-03-16T08:25:48.180Z,100658.09
2024-03-16T08:28:18.594Z,100654.50
2024-03-16T08:30:48.523Z,100659.09
2024-03-16T08:33:18.465Z,100669.50
2024-03-16T08:35:48.709Z,100665.00
2024-03-16T08:38:18.588Z,100682.88
2024-03-16T08:40:51.125Z,100684.31
2024-03-16T08:43:21.456Z,100685.94
2024-03-16T08:45:51.355Z,100684.56
2024-03-16T08:48:21.267Z,100695.06
2024-03-16T08:50:51.177Z,100696.50
2024-03-16T08:53:21.421Z,100698.38
2024-03-16T08:55:58.077Z,100679.72
2024-03-16T08:58:28.563Z,100702.22
2024-03-16T09:00:59.888Z,100701.44
2024-03-16T09:03:30.031Z,100718.13
2024-03-16T09:06:00.351Z,100719.63
2024-03-16T09:08:31.293Z,100727.63
2024-03-16T09:11:03.803Z,100749.16
2024-03-16T09:13:35.197Z,100753.16
2024-03-16T09:16:07.559Z,100762.22
2024-03-16T09:18:38.107Z,100752.97
2024-03-16T09:21:09.500Z,100769.47
2024-03-16T09:23:39.393Z,100781.63
2024-03-16T09:26:11.947Z,100775.50
2024-03-16T09:28:41.755Z,100774.44
2024-03-16T09:31:11.848Z,100794.81
2024-03-16T09:33:41.966Z,100806.19
2024-03-16T09:36:12.231Z,100827.63
2024-03-16T09:38:42.259Z,100826.97
2024-03-16T09:41:21.786Z,100841.41
